sensor_id;sensor_type;location;lat;lon;timestamp;P1;durP1;ratioP1;P2;durP2;ratioP2
20814;SDS011;10568;48.176;16.316;2022-12-18T00:03:47;6.07;;;3.90;;
20814;SDS011;10568;48.176;16.316;2022-12-18T00:06:14;5.30;;;3.43;;
20814;SDS011;10568;48.176;16.316;2022-12-18T00:08:40;7.77;;;3.57;;
20814;SDS011;10568;48.176;16.316;2022-12-18T00:11:07;6.17;;;3.57;;
20814;SDS011;10568;48.176;16.316;2022-12-18T00:13:36;4.87;;;3.50;;
20814;SDS011;10568;48.176;16.316;2022-12-18T00:16:05;6.37;;;3.40;;
20814;SDS011;10568;48.176;16.316;2022-12-18T00:18:33;4.70;;;3.10;;
20814;SDS011;10568;48.176;16.316;2022-12-18T00:20:59;6.80;;;3.27;;
20814;SDS011;10568;48.176;16.316;2022-12-18T00:23:26;5.57;;;3.20;;
20814;SDS011;10568;48.176;16.316;2022-12-18T00:25:52;6.13;;;3.40;;
20814;SDS011;10568;48.176;16.316;2022-12-18T00:28:18;5.03;;;3.73;;
20814;SDS011;10568;48.176;16.316;2022-12-18T00:30:44;6.43;;;3.53;;
20814;SDS011;10568;48.176;16.316;2022-12-18T00:33:09;6.10;;;3.00;;
20814;SDS011;10568;48.176;16.316;2022-12-18T00:35:35;5.47;;;2.87;;
20814;SDS011;10568;48.176;16.316;2022-12-18T00:38:01;5.40;;;3.70;;
20814;SDS011;10568;48.176;16.316;2022-12-18T00:40:27;7.23;;;3.07;;
20814;SDS011;10568;48.176;16.316;2022-12-18T00:42:52;6.57;;;3.77;;
20814;SDS011;10568;48.176;16.316;2022-12-18T00:45:22;6.43;;;3.50;;
20814;SDS011;10568;48.176;16.316;2022-12-18T00:47:48;6.30;;;3.57;;
20814;SDS011;10568;48.176;16.316;2022-12-18T00:50:14;4.97;;;3.60;;
20814;SDS011;10568;48.176;16.316;2022-12-18T00:52:40;7.40;;;3.80;;
20814;SDS011;10568;48.176;16.316;2022-12-18T00:55:06;5.57;;;3.00;;
20814;SDS011;10568;48.176;16.316;2022-12-18T00:57:32;4.87;;;3.27;;
20814;SDS011;10568;48.176;16.316;2022-12-18T00:59:57;5.60;;;3.23;;
20814;SDS011;10568;48.176;16.316;2022-12-18T01:02:23;5.93;;;3.23;;
20814;SDS011;10568;48.176;16.316;2022-12-18T01:04:49;7.13;;;4.07;;
20814;SDS011;10568;48.176;16.316;2022-12-18T01:07:15;5.77;;;3.17;;
20814;SDS011;10568;48.176;16.316;2022-12-18T01:09:40;4.67;;;2.73;;
20814;SDS011;10568;48.176;16.316;2022-12-18T01:12:06;4.60;;;3.23;;
20814;SDS011;10568;48.176;16.316;2022-12-18T01:14:32;4.53;;;2.97;;
20814;SDS011;10568;48.176;16.316;2022-12-18T01:16:57;3.37;;;2.60;;
20814;SDS011;10568;48.176;16.316;2022-12-18T01:19:23;4.80;;;2.90;;
20814;SDS011;10568;48.176;16.316;2022-12-18T01:21:49;4.80;;;3.03;;
20814;SDS011;10568;48.176;16.316;2022-12-18T01:24:15;4.90;;;3.23;;
20814;SDS011;10568;48.176;16.316;2022-12-18T01:26:40;5.80;;;3.37;;
20814;SDS011;10568;48.176;16.316;2022-12-18T01:29:06;3.10;;;2.50;;
20814;SDS011;10568;48.176;16.316;2022-12-18T01:31:32;5.40;;;3.20;;
20814;SDS011;10568;48.176;16.316;2022-12-18T01:34:02;5.93;;;3.30;;
20814;SDS011;10568;48.176;16.316;2022-12-18T01:36:30;5.70;;;3.60;;
20814;SDS011;10568;48.176;16.316;2022-12-18T01:39:01;4.83;;;3.00;;
20814;SDS011;10568;48.176;16.316;2022-12-18T01:41:38;7.33;;;2.87;;
20814;SDS011;10568;48.176;16.316;2022-12-18T01:50:42;7.83;;;3.63;;
20814;SDS011;10568;48.176;16.316;2022-12-18T01:53:07;4.57;;;3.50;;
20814;SDS011;10568;48.176;16.316;2022-12-18T01:55:38;6.57;;;4.07;;
20814;SDS011;10568;48.176;16.316;2022-12-18T01:58:08;6.67;;;3.70;;
20814;SDS011;10568;48.176;16.316;2022-12-18T02:00:34;8.13;;;4.77;;
20814;SDS011;10568;48.176;16.316;2022-12-18T02:03:00;9.90;;;4.90;;
20814;SDS011;10568;48.176;16.316;2022-12-18T02:05:28;8.93;;;3.87;;
20814;SDS011;10568;48.176;16.316;2022-12-18T02:13:43;9.67;;;4.50;;
20814;SDS011;10568;48.176;16.316;2022-12-18T02:18:45;10.43;;;5.23;;
20814;SDS011;10568;48.176;16.316;2022-12-18T02:21:26;7.90;;;4.27;;
20814;SDS011;10568;48.176;16.316;2022-12-18T02:27:07;7.50;;;4.77;;
20814;SDS011;10568;48.176;16.316;2022-12-18T02:29:43;12.50;;;4.80;;
20814;SDS011;10568;48.176;16.316;2022-12-18T02:32:14;9.80;;;4.67;;
20814;SDS011;10568;48.176;16.316;2022-12-18T02:34:42;7.30;;;4.30;;
20814;SDS011;10568;48.176;16.316;2022-12-18T02:37:10;10.70;;;5.30;;
20814;SDS011;10568;48.176;16.316;2022-12-18T02:39:39;7.87;;;4.43;;
20814;SDS011;10568;48.176;16.316;2022-12-18T02:42:07;8.60;;;4.80;;
20814;SDS011;10568;48.176;16.316;2022-12-18T02:44:34;10.93;;;5.37;;
20814;SDS011;10568;48.176;16.316;2022-12-18T02:47:08;9.37;;;4.40;;
20814;SDS011;10568;48.176;16.316;2022-12-18T03:00:17;8.60;;;5.33;;
20814;SDS011;10568;48.176;16.316;2022-12-18T03:07:57;9.27;;;4.30;;
20814;SDS011;10568;48.176;16.316;2022-12-18T03:10:29;8.10;;;4.03;;
20814;SDS011;10568;48.176;16.316;2022-12-18T03:13:18;6.27;;;4.07;;
20814;SDS011;10568;48.176;16.316;2022-12-18T03:15:49;7.80;;;4.63;;
20814;SDS011;10568;48.176;16.316;2022-12-18T03:18:35;8.80;;;3.77;;
20814;SDS011;10568;48.176;16.316;2022-12-18T03:21:05;5.93;;;3.77;;
20814;SDS011;10568;48.176;16.316;2022-12-18T03:23:33;6.20;;;3.73;;
20814;SDS011;10568;48.176;16.316;2022-12-18T03:26:07;7.63;;;3.63;;
20814;SDS011;10568;48.176;16.316;2022-12-18T03:28:37;6.33;;;3.73;;
20814;SDS011;10568;48.176;16.316;2022-12-18T03:31:07;7.67;;;3.67;;
20814;SDS011;10568;48.176;16.316;2022-12-18T03:33:38;8.60;;;4.53;;
20814;SDS011;10568;48.176;16.316;2022-12-18T03:36:26;7.33;;;3.80;;
20814;SDS011;10568;48.176;16.316;2022-12-18T03:38:52;5.63;;;3.70;;
20814;SDS011;10568;48.176;16.316;2022-12-18T03:44:01;7.90;;;4.07;;
20814;SDS011;10568;48.176;16.316;2022-12-18T03:49:45;8.40;;;4.87;;
20814;SDS011;10568;48.176;16.316;2022-12-18T03:52:30;9.97;;;3.97;;
20814;SDS011;10568;48.176;16.316;2022-12-18T03:54:56;6.80;;;4.40;;
20814;SDS011;10568;48.176;16.316;2022-12-18T03:57:26;6.47;;;3.47;;
20814;SDS011;10568;48.176;16.316;2022-12-18T03:59:55;7.57;;;4.03;;
20814;SDS011;10568;48.176;16.316;2022-12-18T04:02:27;7.97;;;4.40;;
20814;SDS011;10568;48.176;16.316;2022-12-18T04:04:55;6.77;;;4.20;;
20814;SDS011;10568;48.176;16.316;2022-12-18T04:07:24;7.43;;;4.20;;
20814;SDS011;10568;48.176;16.316;2022-12-18T04:09:51;4.63;;;3.77;;
20814;SDS011;10568;48.176;16.316;2022-12-18T04:12:21;6.97;;;3.83;;
20814;SDS011;10568;48.176;16.316;2022-12-18T04:14:53;6.30;;;4.37;;
20814;SDS011;10568;48.176;16.316;2022-12-18T04:17:19;5.20;;;4.10;;
20814;SDS011;10568;48.176;16.316;2022-12-18T04:19:45;6.47;;;4.50;;
20814;SDS011;10568;48.176;16.316;2022-12-18T04:22:11;7.77;;;4.20;;
20814;SDS011;10568;48.176;16.316;2022-12-18T04:24:37;9.17;;;3.60;;
20814;SDS011;10568;48.176;16.316;2022-12-18T04:27:03;10.43;;;4.07;;
20814;SDS011;10568;48.176;16.316;2022-12-18T04:29:29;5.37;;;3.37;;
20814;SDS011;10568;48.176;16.316;2022-12-18T04:31:55;8.13;;;3.97;;
20814;SDS011;10568;48.176;16.316;2022-12-18T04:34:20;10.73;;;4.53;;
20814;SDS011;10568;48.176;16.316;2022-12-18T04:36:46;6.47;;;4.17;;
20814;SDS011;10568;48.176;16.316;2022-12-18T04:39:13;11.47;;;4.47;;
20814;SDS011;10568;48.176;16.316;2022-12-18T04:41:39;7.87;;;4.07;;
20814;SDS011;10568;48.176;16.316;2022-12-18T04:44:04;9.87;;;4.53;;
20814;SDS011;10568;48.176;16.316;2022-12-18T04:46:30;7.47;;;4.13;;
20814;SDS011;10568;48.176;16.316;2022-12-18T04:48:56;6.00;;;4.07;;
20814;SDS011;10568;48.176;16.316;2022-12-18T04:51:22;9.23;;;4.70;;
20814;SDS011;10568;48.176;16.316;2022-12-18T04:53:47;9.77;;;4.37;;
20814;SDS011;10568;48.176;16.316;2022-12-18T04:56:14;8.43;;;4.47;;
20814;SDS011;10568;48.176;16.316;2022-12-18T04:58:41;9.77;;;4.80;;
20814;SDS011;10568;48.176;16.316;2022-12-18T05:01:08;7.37;;;3.57;;
20814;SDS011;10568;48.176;16.316;2022-12-18T05:03:35;6.00;;;4.10;;
20814;SDS011;10568;48.176;16.316;2022-12-18T05:06:02;12.20;;;4.87;;
20814;SDS011;10568;48.176;16.316;2022-12-18T05:08:29;6.90;;;4.50;;
20814;SDS011;10568;48.176;16.316;2022-12-18T05:11:02;10.17;;;5.43;;
20814;SDS011;10568;48.176;16.316;2022-12-18T05:13:32;6.63;;;4.00;;
20814;SDS011;10568;48.176;16.316;2022-12-18T05:15:59;10.43;;;4.90;;
20814;SDS011;10568;48.176;16.316;2022-12-18T05:18:25;9.70;;;4.20;;
20814;SDS011;10568;48.176;16.316;2022-12-18T05:20:51;6.77;;;4.07;;
20814;SDS011;10568;48.176;16.316;2022-12-18T05:23:18;9.70;;;3.77;;
20814;SDS011;10568;48.176;16.316;2022-12-18T05:25:52;10.40;;;4.77;;
20814;SDS011;10568;48.176;16.316;2022-12-18T05:28:22;9.87;;;4.00;;
20814;SDS011;10568;48.176;16.316;2022-12-18T05:30:52;12.17;;;4.80;;
20814;SDS011;10568;48.176;16.316;2022-12-18T05:33:21;6.07;;;3.43;;
20814;SDS011;10568;48.176;16.316;2022-12-18T05:35:54;6.97;;;3.83;;
20814;SDS011;10568;48.176;16.316;2022-12-18T05:38:22;6.40;;;3.67;;
20814;SDS011;10568;48.176;16.316;2022-12-18T05:40:49;7.43;;;3.57;;
20814;SDS011;10568;48.176;16.316;2022-12-18T05:43:16;9.07;;;4.87;;
20814;SDS011;10568;48.176;16.316;2022-12-18T05:45:42;6.03;;;3.73;;
20814;SDS011;10568;48.176;16.316;2022-12-18T05:48:08;6.83;;;4.87;;
20814;SDS011;10568;48.176;16.316;2022-12-18T05:50:35;7.30;;;4.67;;
20814;SDS011;10568;48.176;16.316;2022-12-18T05:53:02;10.73;;;5.10;;
20814;SDS011;10568;48.176;16.316;2022-12-18T05:55:28;10.03;;;3.93;;
20814;SDS011;10568;48.176;16.316;2022-12-18T05:57:57;9.80;;;4.57;;
20814;SDS011;10568;48.176;16.316;2022-12-18T06:00:23;9.43;;;5.00;;
20814;SDS011;10568;48.176;16.316;2022-12-18T06:02:48;8.60;;;4.27;;
20814;SDS011;10568;48.176;16.316;2022-12-18T06:05:14;9.07;;;4.30;;
20814;SDS011;10568;48.176;16.316;2022-12-18T06:07:40;6.37;;;5.00;;
20814;SDS011;10568;48.176;16.316;2022-12-18T06:10:05;10.70;;;4.93;;
20814;SDS011;10568;48.176;16.316;2022-12-18T06:12:31;12.50;;;4.70;;
20814;SDS011;10568;48.176;16.316;2022-12-18T06:14:58;6.57;;;4.37;;
20814;SDS011;10568;48.176;16.316;2022-12-18T06:17:29;6.33;;;3.90;;
20814;SDS011;10568;48.176;16.316;2022-12-18T06:19:55;8.73;;;4.80;;
20814;SDS011;10568;48.176;16.316;2022-12-18T06:22:21;7.70;;;4.40;;
20814;SDS011;10568;48.176;16.316;2022-12-18T06:24:47;7.40;;;4.03;;
20814;SDS011;10568;48.176;16.316;2022-12-18T06:27:13;7.97;;;3.97;;
20814;SDS011;10568;48.176;16.316;2022-12-18T06:29:39;5.47;;;4.03;;
20814;SDS011;10568;48.176;16.316;2022-12-18T06:32:04;5.93;;;4.20;;
20814;SDS011;10568;48.176;16.316;2022-12-18T06:34:30;8.23;;;4.40;;
20814;SDS011;10568;48.176;16.316;2022-12-18T06:36:57;7.40;;;4.27;;
20814;SDS011;10568;48.176;16.316;2022-12-18T06:39:23;8.07;;;4.90;;
20814;SDS011;10568;48.176;16.316;2022-12-18T06:41:49;11.20;;;4.67;;
20814;SDS011;10568;48.176;16.316;2022-12-18T06:44:14;8.17;;;4.13;;
20814;SDS011;10568;48.176;16.316;2022-12-18T06:46:40;7.73;;;4.17;;
20814;SDS011;10568;48.176;16.316;2022-12-18T06:49:06;7.97;;;4.37;;
20814;SDS011;10568;48.176;16.316;2022-12-18T06:51:34;7.93;;;4.77;;
20814;SDS011;10568;48.176;16.316;2022-12-18T06:54:01;6.70;;;4.23;;
20814;SDS011;10568;48.176;16.316;2022-12-18T06:56:27;8.13;;;4.27;;
20814;SDS011;10568;48.176;16.316;2022-12-18T06:58:53;6.30;;;4.37;;
20814;SDS011;10568;48.176;16.316;2022-12-18T07:01:19;9.93;;;4.57;;
20814;SDS011;10568;48.176;16.316;2022-12-18T07:03:44;9.27;;;4.73;;
20814;SDS011;10568;48.176;16.316;2022-12-18T07:06:28;8.70;;;4.30;;
20814;SDS011;10568;48.176;16.316;2022-12-18T07:08:54;9.07;;;3.73;;
20814;SDS011;10568;48.176;16.316;2022-12-18T07:11:20;5.43;;;3.63;;
20814;SDS011;10568;48.176;16.316;2022-12-18T07:13:46;7.70;;;4.57;;
20814;SDS011;10568;48.176;16.316;2022-12-18T07:16:13;10.37;;;5.43;;
20814;SDS011;10568;48.176;16.316;2022-12-18T07:18:40;5.97;;;4.13;;
20814;SDS011;10568;48.176;16.316;2022-12-18T07:21:06;10.50;;;4.00;;
20814;SDS011;10568;48.176;16.316;2022-12-18T07:23:34;9.00;;;4.70;;
20814;SDS011;10568;48.176;16.316;2022-12-18T07:26:11;11.00;;;4.83;;
20814;SDS011;10568;48.176;16.316;2022-12-18T07:28:38;13.80;;;5.37;;
20814;SDS011;10568;48.176;16.316;2022-12-18T07:31:11;8.60;;;3.63;;
20814;SDS011;10568;48.176;16.316;2022-12-18T07:33:38;8.73;;;4.73;;
20814;SDS011;10568;48.176;16.316;2022-12-18T07:36:05;10.10;;;5.07;;
20814;SDS011;10568;48.176;16.316;2022-12-18T07:38:32;11.37;;;5.90;;
20814;SDS011;10568;48.176;16.316;2022-12-18T07:41:01;7.73;;;5.00;;
20814;SDS011;10568;48.176;16.316;2022-12-18T07:43:29;9.90;;;5.27;;
20814;SDS011;10568;48.176;16.316;2022-12-18T07:45:54;9.13;;;3.83;;
20814;SDS011;10568;48.176;16.316;2022-12-18T07:48:20;9.53;;;4.73;;
20814;SDS011;10568;48.176;16.316;2022-12-18T07:50:46;7.70;;;4.73;;
20814;SDS011;10568;48.176;16.316;2022-12-18T07:53:12;11.93;;;6.20;;
20814;SDS011;10568;48.176;16.316;2022-12-18T07:55:37;27.67;;;10.67;;
20814;SDS011;10568;48.176;16.316;2022-12-18T07:58:03;33.43;;;12.67;;
20814;SDS011;10568;48.176;16.316;2022-12-18T08:00:29;55.57;;;18.73;;
20814;SDS011;10568;48.176;16.316;2022-12-18T08:02:55;39.43;;;13.47;;
20814;SDS011;10568;48.176;16.316;2022-12-18T08:05:21;45.67;;;17.33;;
20814;SDS011;10568;48.176;16.316;2022-12-18T08:07:48;37.80;;;15.80;;
20814;SDS011;10568;48.176;16.316;2022-12-18T08:10:14;33.37;;;14.87;;
20814;SDS011;10568;48.176;16.316;2022-12-18T08:12:40;27.17;;;11.33;;
20814;SDS011;10568;48.176;16.316;2022-12-18T08:15:06;22.87;;;8.90;;
20814;SDS011;10568;48.176;16.316;2022-12-18T08:17:33;16.23;;;8.70;;
20814;SDS011;10568;48.176;16.316;2022-12-18T08:19:59;17.83;;;7.20;;
20814;SDS011;10568;48.176;16.316;2022-12-18T08:22:25;16.60;;;7.10;;
20814;SDS011;10568;48.176;16.316;2022-12-18T08:24:50;13.40;;;6.20;;
20814;SDS011;10568;48.176;16.316;2022-12-18T08:27:16;9.03;;;5.43;;
20814;SDS011;10568;48.176;16.316;2022-12-18T08:29:42;7.87;;;5.13;;
20814;SDS011;10568;48.176;16.316;2022-12-18T08:32:09;7.13;;;4.83;;
20814;SDS011;10568;48.176;16.316;2022-12-18T08:34:35;13.03;;;8.10;;
20814;SDS011;10568;48.176;16.316;2022-12-18T08:37:01;12.37;;;5.73;;
20814;SDS011;10568;48.176;16.316;2022-12-18T08:39:26;8.33;;;5.37;;
20814;SDS011;10568;48.176;16.316;2022-12-18T08:41:52;14.17;;;6.70;;
20814;SDS011;10568;48.176;16.316;2022-12-18T08:44:36;14.33;;;7.20;;
20814;SDS011;10568;48.176;16.316;2022-12-18T08:47:06;12.93;;;5.70;;
20814;SDS011;10568;48.176;16.316;2022-12-18T08:49:32;13.50;;;6.13;;
20814;SDS011;10568;48.176;16.316;2022-12-18T08:51:58;18.87;;;7.13;;
20814;SDS011;10568;48.176;16.316;2022-12-18T08:54:24;11.60;;;6.33;;
20814;SDS011;10568;48.176;16.316;2022-12-18T08:56:50;14.03;;;7.47;;
20814;SDS011;10568;48.176;16.316;2022-12-18T08:59:17;16.70;;;7.80;;
20814;SDS011;10568;48.176;16.316;2022-12-18T09:01:43;16.27;;;9.13;;
20814;SDS011;10568;48.176;16.316;2022-12-18T09:04:10;14.93;;;7.77;;
20814;SDS011;10568;48.176;16.316;2022-12-18T09:06:35;13.73;;;8.00;;
20814;SDS011;10568;48.176;16.316;2022-12-18T09:09:02;14.57;;;7.57;;
20814;SDS011;10568;48.176;16.316;2022-12-18T09:11:29;14.53;;;7.93;;
20814;SDS011;10568;48.176;16.316;2022-12-18T09:13:56;18.63;;;8.07;;
20814;SDS011;10568;48.176;16.316;2022-12-18T09:16:23;18.33;;;9.10;;
20814;SDS011;10568;48.176;16.316;2022-12-18T09:18:50;15.43;;;7.73;;
20814;SDS011;10568;48.176;16.316;2022-12-18T09:21:19;17.20;;;8.33;;
20814;SDS011;10568;48.176;16.316;2022-12-18T09:23:52;15.70;;;7.67;;
20814;SDS011;10568;48.176;16.316;2022-12-18T09:26:20;18.03;;;9.10;;
20814;SDS011;10568;48.176;16.316;2022-12-18T09:28:46;23.63;;;10.07;;
20814;SDS011;10568;48.176;16.316;2022-12-18T09:31:12;22.40;;;10.47;;
20814;SDS011;10568;48.176;16.316;2022-12-18T09:33:39;19.70;;;8.87;;
20814;SDS011;10568;48.176;16.316;2022-12-18T09:36:05;24.93;;;9.67;;
20814;SDS011;10568;48.176;16.316;2022-12-18T09:38:33;19.37;;;9.57;;
20814;SDS011;10568;48.176;16.316;2022-12-18T09:41:00;21.90;;;8.77;;
20814;SDS011;10568;48.176;16.316;2022-12-18T09:43:46;15.60;;;7.93;;
20814;SDS011;10568;48.176;16.316;2022-12-18T09:46:20;19.70;;;9.57;;
20814;SDS011;10568;48.176;16.316;2022-12-18T09:48:52;24.90;;;9.80;;
20814;SDS011;10568;48.176;16.316;2022-12-18T09:51:26;20.17;;;8.90;;
20814;SDS011;10568;48.176;16.316;2022-12-18T09:54:21;20.10;;;8.77;;
20814;SDS011;10568;48.176;16.316;2022-12-18T09:56:56;22.97;;;9.67;;
20814;SDS011;10568;48.176;16.316;2022-12-18T09:59:38;19.70;;;9.73;;
20814;SDS011;10568;48.176;16.316;2022-12-18T10:02:14;16.57;;;8.27;;
20814;SDS011;10568;48.176;16.316;2022-12-18T10:04:48;17.27;;;9.23;;
20814;SDS011;10568;48.176;16.316;2022-12-18T10:07:29;22.40;;;8.93;;
20814;SDS011;10568;48.176;16.316;2022-12-18T10:13:33;14.03;;;7.13;;
20814;SDS011;10568;48.176;16.316;2022-12-18T10:16:19;16.97;;;9.30;;
20814;SDS011;10568;48.176;16.316;2022-12-18T10:21:45;21.03;;;10.20;;
20814;SDS011;10568;48.176;16.316;2022-12-18T10:27:09;18.50;;;8.13;;
20814;SDS011;10568;48.176;16.316;2022-12-18T10:29:36;17.97;;;8.53;;
20814;SDS011;10568;48.176;16.316;2022-12-18T10:32:02;21.33;;;8.97;;
20814;SDS011;10568;48.176;16.316;2022-12-18T10:34:28;16.17;;;8.27;;
20814;SDS011;10568;48.176;16.316;2022-12-18T10:36:54;16.83;;;8.20;;
20814;SDS011;10568;48.176;16.316;2022-12-18T10:39:21;19.33;;;9.50;;
20814;SDS011;10568;48.176;16.316;2022-12-18T10:41:48;18.90;;;8.07;;
20814;SDS011;10568;48.176;16.316;2022-12-18T10:46:45;22.93;;;9.63;;
20814;SDS011;10568;48.176;16.316;2022-12-18T10:49:21;20.07;;;8.33;;
20814;SDS011;10568;48.176;16.316;2022-12-18T10:51:50;19.37;;;8.83;;
20814;SDS011;10568;48.176;16.316;2022-12-18T10:54:28;18.93;;;9.00;;
20814;SDS011;10568;48.176;16.316;2022-12-18T10:57:13;17.83;;;8.47;;
20814;SDS011;10568;48.176;16.316;2022-12-18T10:59:50;17.40;;;8.33;;
20814;SDS011;10568;48.176;16.316;2022-12-18T11:02:53;21.93;;;9.17;;
20814;SDS011;10568;48.176;16.316;2022-12-18T11:05:31;17.63;;;8.07;;
20814;SDS011;10568;48.176;16.316;2022-12-18T11:07:59;23.33;;;9.53;;
20814;SDS011;10568;48.176;16.316;2022-12-18T11:10:28;21.40;;;9.67;;
20814;SDS011;10568;48.176;16.316;2022-12-18T11:15:44;16.97;;;8.73;;
20814;SDS011;10568;48.176;16.316;2022-12-18T11:18:29;16.53;;;8.97;;
20814;SDS011;10568;48.176;16.316;2022-12-18T11:21:07;16.87;;;9.43;;
20814;SDS011;10568;48.176;16.316;2022-12-18T11:23:36;17.97;;;8.30;;
20814;SDS011;10568;48.176;16.316;2022-12-18T11:26:09;19.07;;;8.33;;
20814;SDS011;10568;48.176;16.316;2022-12-18T11:28:36;13.30;;;7.90;;
20814;SDS011;10568;48.176;16.316;2022-12-18T11:31:12;21.77;;;8.80;;
20814;SDS011;10568;48.176;16.316;2022-12-18T11:36:23;20.47;;;8.00;;
20814;SDS011;10568;48.176;16.316;2022-12-18T11:38:51;14.70;;;7.27;;
20814;SDS011;10568;48.176;16.316;2022-12-18T11:41:25;19.93;;;8.97;;
20814;SDS011;10568;48.176;16.316;2022-12-18T11:44:30;17.80;;;8.47;;
20814;SDS011;10568;48.176;16.316;2022-12-18T11:47:03;16.63;;;8.40;;
20814;SDS011;10568;48.176;16.316;2022-12-18T11:49:38;17.73;;;9.57;;
20814;SDS011;10568;48.176;16.316;2022-12-18T11:52:19;18.03;;;8.80;;
20814;SDS011;10568;48.176;16.316;2022-12-18T11:55:04;17.03;;;8.57;;
20814;SDS011;10568;48.176;16.316;2022-12-18T12:00:15;19.43;;;8.57;;
20814;SDS011;10568;48.176;16.316;2022-12-18T12:03:06;22.33;;;9.43;;
20814;SDS011;10568;48.176;16.316;2022-12-18T12:05:41;15.77;;;8.80;;
20814;SDS011;10568;48.176;16.316;2022-12-18T12:08:26;16.63;;;9.17;;
20814;SDS011;10568;48.176;16.316;2022-12-18T12:11:13;19.77;;;9.37;;
20814;SDS011;10568;48.176;16.316;2022-12-18T12:16:58;23.20;;;9.60;;
20814;SDS011;10568;48.176;16.316;2022-12-18T12:30:24;20.33;;;9.17;;
20814;SDS011;10568;48.176;16.316;2022-12-18T12:33:14;18.40;;;8.40;;
20814;SDS011;10568;48.176;16.316;2022-12-18T12:35:49;24.53;;;10.43;;
20814;SDS011;10568;48.176;16.316;2022-12-18T12:39:05;17.20;;;10.23;;
20814;SDS011;10568;48.176;16.316;2022-12-18T12:41:17;21.53;;;9.67;;
20814;SDS011;10568;48.176;16.316;2022-12-18T12:44:08;17.73;;;9.17;;
20814;SDS011;10568;48.176;16.316;2022-12-18T12:46:41;20.27;;;9.27;;
20814;SDS011;10568;48.176;16.316;2022-12-18T12:49:12;23.07;;;9.27;;
20814;SDS011;10568;48.176;16.316;2022-12-18T12:51:46;24.47;;;9.57;;
20814;SDS011;10568;48.176;16.316;2022-12-18T12:54:21;20.73;;;10.17;;
20814;SDS011;10568;48.176;16.316;2022-12-18T12:59:54;17.70;;;9.17;;
20814;SDS011;10568;48.176;16.316;2022-12-18T13:05:29;19.47;;;8.63;;
20814;SDS011;10568;48.176;16.316;2022-12-18T13:08:24;19.20;;;8.87;;
20814;SDS011;10568;48.176;16.316;2022-12-18T13:10:54;18.17;;;9.10;;
20814;SDS011;10568;48.176;16.316;2022-12-18T13:13:50;20.70;;;9.00;;
20814;SDS011;10568;48.176;16.316;2022-12-18T13:16:21;21.13;;;9.13;;
20814;SDS011;10568;48.176;16.316;2022-12-18T13:18:52;19.20;;;9.47;;
20814;SDS011;10568;48.176;16.316;2022-12-18T13:23:50;24.73;;;9.77;;
20814;SDS011;10568;48.176;16.316;2022-12-18T13:33:43;21.53;;;8.23;;
20814;SDS011;10568;48.176;16.316;2022-12-18T13:39:08;18.67;;;8.53;;
20814;SDS011;10568;48.176;16.316;2022-12-18T13:41:34;24.83;;;9.50;;
20814;SDS011;10568;48.176;16.316;2022-12-18T13:44:17;23.07;;;10.50;;
20814;SDS011;10568;48.176;16.316;2022-12-18T13:46:59;22.27;;;9.63;;
20814;SDS011;10568;48.176;16.316;2022-12-18T13:49:44;24.03;;;9.73;;
20814;SDS011;10568;48.176;16.316;2022-12-18T13:52:15;20.07;;;8.77;;
20814;SDS011;10568;48.176;16.316;2022-12-18T13:54:55;20.37;;;9.30;;
20814;SDS011;10568;48.176;16.316;2022-12-18T13:57:29;21.17;;;9.77;;
20814;SDS011;10568;48.176;16.316;2022-12-18T13:59:56;22.80;;;10.27;;
20814;SDS011;10568;48.176;16.316;2022-12-18T14:02:24;18.23;;;9.00;;
20814;SDS011;10568;48.176;16.316;2022-12-18T14:04:51;22.90;;;9.53;;
20814;SDS011;10568;48.176;16.316;2022-12-18T14:07:24;17.10;;;7.70;;
20814;SDS011;10568;48.176;16.316;2022-12-18T14:09:55;19.77;;;9.60;;
20814;SDS011;10568;48.176;16.316;2022-12-18T14:12:24;20.77;;;9.33;;
20814;SDS011;10568;48.176;16.316;2022-12-18T14:15:22;22.40;;;9.70;;
20814;SDS011;10568;48.176;16.316;2022-12-18T14:17:54;19.17;;;8.63;;
20814;SDS011;10568;48.176;16.316;2022-12-18T14:20:39;20.43;;;9.00;;
20814;SDS011;10568;48.176;16.316;2022-12-18T14:32:06;23.50;;;10.50;;
20814;SDS011;10568;48.176;16.316;2022-12-18T14:34:52;18.97;;;9.83;;
20814;SDS011;10568;48.176;16.316;2022-12-18T14:37:23;22.57;;;9.30;;
20814;SDS011;10568;48.176;16.316;2022-12-18T14:39:57;18.97;;;9.73;;
20814;SDS011;10568;48.176;16.316;2022-12-18T14:42:26;26.73;;;10.80;;
20814;SDS011;10568;48.176;16.316;2022-12-18T14:47:56;18.47;;;9.37;;
20814;SDS011;10568;48.176;16.316;2022-12-18T14:50:22;22.47;;;9.37;;
20814;SDS011;10568;48.176;16.316;2022-12-18T14:52:48;25.83;;;10.57;;
20814;SDS011;10568;48.176;16.316;2022-12-18T14:55:16;19.17;;;10.23;;
20814;SDS011;10568;48.176;16.316;2022-12-18T14:57:42;24.60;;;10.10;;
20814;SDS011;10568;48.176;16.316;2022-12-18T15:00:15;23.47;;;10.40;;
20814;SDS011;10568;48.176;16.316;2022-12-18T15:02:45;24.60;;;10.13;;
20814;SDS011;10568;48.176;16.316;2022-12-18T15:05:18;24.43;;;10.83;;
20814;SDS011;10568;48.176;16.316;2022-12-18T15:07:45;27.33;;;11.37;;
20814;SDS011;10568;48.176;16.316;2022-12-18T15:10:17;27.87;;;11.17;;
20814;SDS011;10568;48.176;16.316;2022-12-18T15:12:50;23.27;;;10.77;;
20814;SDS011;10568;48.176;16.316;2022-12-18T15:20:24;24.17;;;11.43;;
20814;SDS011;10568;48.176;16.316;2022-12-18T15:22:50;26.33;;;10.67;;
20814;SDS011;10568;48.176;16.316;2022-12-18T15:25:26;22.63;;;11.33;;
20814;SDS011;10568;48.176;16.316;2022-12-18T15:27:59;23.77;;;10.63;;
20814;SDS011;10568;48.176;16.316;2022-12-18T15:30:25;22.17;;;10.00;;
20814;SDS011;10568;48.176;16.316;2022-12-18T15:32:52;21.83;;;10.67;;
20814;SDS011;10568;48.176;16.316;2022-12-18T15:38:48;25.53;;;10.90;;
20814;SDS011;10568;48.176;16.316;2022-12-18T15:41:19;23.03;;;11.43;;
20814;SDS011;10568;48.176;16.316;2022-12-18T15:43:49;24.77;;;10.00;;
20814;SDS011;10568;48.176;16.316;2022-12-18T15:46:18;25.70;;;10.80;;
20814;SDS011;10568;48.176;16.316;2022-12-18T15:48:46;26.13;;;11.50;;
20814;SDS011;10568;48.176;16.316;2022-12-18T15:51:31;21.30;;;10.57;;
20814;SDS011;10568;48.176;16.316;2022-12-18T15:54:00;22.63;;;10.47;;
20814;SDS011;10568;48.176;16.316;2022-12-18T15:56:29;22.80;;;9.90;;
20814;SDS011;10568;48.176;16.316;2022-12-18T15:59:14;27.33;;;9.93;;
20814;SDS011;10568;48.176;16.316;2022-12-18T16:01:43;21.77;;;10.23;;
20814;SDS011;10568;48.176;16.316;2022-12-18T16:04:15;24.10;;;10.57;;
20814;SDS011;10568;48.176;16.316;2022-12-18T16:06:45;20.73;;;9.80;;
20814;SDS011;10568;48.176;16.316;2022-12-18T16:09:11;24.10;;;11.10;;
20814;SDS011;10568;48.176;16.316;2022-12-18T16:11:37;28.43;;;11.80;;
20814;SDS011;10568;48.176;16.316;2022-12-18T16:14:23;25.87;;;11.23;;
20814;SDS011;10568;48.176;16.316;2022-12-18T16:16:52;18.70;;;9.23;;
20814;SDS011;10568;48.176;16.316;2022-12-18T16:19:20;26.67;;;10.40;;
20814;SDS011;10568;48.176;16.316;2022-12-18T16:21:47;22.07;;;10.30;;
20814;SDS011;10568;48.176;16.316;2022-12-18T16:24:24;25.40;;;10.13;;
20814;SDS011;10568;48.176;16.316;2022-12-18T16:26:56;24.07;;;10.87;;
20814;SDS011;10568;48.176;16.316;2022-12-18T16:29:24;25.30;;;10.50;;
20814;SDS011;10568;48.176;16.316;2022-12-18T16:31:52;20.27;;;10.47;;
20814;SDS011;10568;48.176;16.316;2022-12-18T16:34:23;22.37;;;10.30;;
20814;SDS011;10568;48.176;16.316;2022-12-18T16:36:54;20.87;;;8.97;;
20814;SDS011;10568;48.176;16.316;2022-12-18T16:39:21;21.93;;;9.43;;